Time;durP1;ratioP1;P1;durP2;ratioP2;P2;SDS_P1;SDS_P2;PMS_P1;PMS_P2;Temp;Humidity;BMP_temperature;BMP_pressure;BME280_temperature;BME280_humidity;BME280_pressure;Samples;Min_cycle;Max_cycle;Signal;HPM_P1;HPM_P2
2022/04/23 00:01:34;;;;;;;11.38;6.67;;;9.20;79.70;;;;;;1883131;75;21107;-60
2022/04/23 00:04:04;;;;;;;8.60;5.87;;;9.20;79.60;;;;;;1883092;76;21103;-60
2022/04/23 00:06:33;;;;;;;8.65;6.40;;;9.20;79.70;;;;;;1883089;76;21034;-60
2022/04/23 00:09:03;;;;;;;8.83;6.62;;;9.20;80.00;;;;;;1883061;76;21021;-60
2022/04/23 00:11:35;;;;;;;11.85;6.97;;;9.20;80.20;;;;;;1882986;76;21146;-60
2022/04/23 00:14:04;;;;;;;11.22;7.03;;;9.20;80.20;;;;;;1883120;76;21060;-60
2022/04/23 00:16:34;;;;;;;10.60;6.50;;;9.20;80.00;;;;;;1883079;76;21542;-60
2022/04/23 00:19:03;;;;;;;8.43;6.15;;;9.20;79.90;;;;;;1883001;75;21037;-60
2022/04/23 00:21:33;;;;;;;12.75;6.47;;;9.10;79.80;;;;;;1882895;76;21091;-60
2022/04/23 00:24:04;;;;;;;10.20;6.33;;;9.10;79.90;;;;;;1882847;76;21072;-60
2022/04/23 00:26:34;;;;;;;12.53;6.85;;;9.10;80.00;;;;;;1882900;76;21061;-60
2022/04/23 00:29:03;;;;;;;10.10;6.58;;;9.00;79.30;;;;;;1882880;75;21084;-60
2022/04/23 00:31:33;;;;;;;12.28;6.58;;;8.90;79.40;;;;;;1882962;76;21080;-60
2022/04/23 00:34:02;;;;;;;14.50;7.62;;;8.90;79.80;;;;;;1883018;76;21095;-60
2022/04/23 00:36:33;;;;;;;11.33;6.40;;;8.80;80.20;;;;;;1882886;76;21029;-60
2022/04/23 00:39:02;;;;;;;11.05;6.83;;;8.80;80.20;;;;;;1882957;76;21063;-60
2022/04/23 00:41:46;;;;;;;9.48;5.83;;;8.80;80.20;;;;;;1882974;76;21025;-60
2022/04/23 00:44:16;;;;;;;10.78;6.72;;;8.70;80.00;;;;;;1882986;76;21033;-60
2022/04/23 00:46:46;;;;;;;12.80;7.22;;;8.70;80.30;;;;;;1882824;76;21002;-60
2022/04/23 00:49:16;;;;;;;8.55;6.03;;;8.70;80.40;;;;;;1882919;76;21030;-60
2022/04/23 00:51:45;;;;;;;9.23;6.08;;;8.60;80.30;;;;;;1882865;76;21001;-60
2022/04/23 00:54:15;;;;;;;10.75;6.20;;;8.70;80.50;;;;;;1882959;76;21025;-60
2022/04/23 00:56:44;;;;;;;8.95;6.72;;;8.70;80.60;;;;;;1879850;75;21057;-60
2022/04/23 00:59:14;;;;;;;9.15;5.90;;;8.70;81.30;;;;;;1877231;76;21107;-60
2022/04/23 01:01:44;;;;;;;10.10;6.72;;;8.70;80.60;;;;;;1877166;76;21025;-60
2022/04/23 01:04:14;;;;;;;10.18;7.53;;;8.70;80.70;;;;;;1877015;76;21021;-60
2022/04/23 01:06:45;;;;;;;12.25;7.30;;;8.70;80.60;;;;;;1877037;76;21001;-60
2022/04/23 01:09:14;;;;;;;16.52;7.33;;;8.70;80.40;;;;;;1877117;76;21006;-60
2022/04/23 01:11:44;;;;;;;13.50;7.67;;;8.70;80.50;;;;;;1877051;76;21035;-60
2022/04/23 01:14:13;;;;;;;16.02;7.50;;;8.70;80.60;;;;;;1877068;76;21021;-60
2022/04/23 01:16:42;;;;;;;11.90;7.10;;;8.70;80.70;;;;;;1877057;76;21134;-60
2022/04/23 01:19:12;;;;;;;13.95;6.65;;;8.70;80.70;;;;;;1877017;75;21077;-60
2022/04/23 01:21:41;;;;;;;11.50;6.42;;;8.70;80.70;;;;;;1877089;76;21100;-60
2022/04/23 01:24:10;;;;;;;14.50;6.87;;;8.70;80.80;;;;;;1877126;75;21037;-60
2022/04/23 01:26:40;;;;;;;12.58;7.17;;;8.70;80.80;;;;;;1877106;75;21026;-60
2022/04/23 01:29:09;;;;;;;12.70;6.53;;;8.70;80.60;;;;;;1877056;76;21025;-60
2022/04/23 01:31:39;;;;;;;9.28;5.78;;;8.60;80.40;;;;;;1877145;76;21562;-60
2022/04/23 01:34:08;;;;;;;10.95;6.78;;;8.50;80.40;;;;;;1877036;76;21096;-60
2022/04/23 01:36:37;;;;;;;11.45;6.53;;;8.50;80.70;;;;;;1877009;76;21029;-60
2022/04/23 01:39:06;;;;;;;11.80;6.95;;;8.40;80.60;;;;;;1877162;76;21030;-60
2022/04/23 01:41:36;;;;;;;10.23;6.20;;;8.40;80.90;;;;;;1876971;76;21042;-60
2022/04/23 01:44:06;;;;;;;9.38;6.70;;;8.40;80.90;;;;;;1877131;76;21091;-60
2022/04/23 01:46:36;;;;;;;9.58;6.67;;;8.40;80.90;;;;;;1877078;76;21021;-60
2022/04/23 01:49:05;;;;;;;10.03;7.00;;;8.40;80.70;;;;;;1877130;76;21030;-60
2022/04/23 01:51:35;;;;;;;7.75;5.70;;;8.30;80.90;;;;;;1877090;76;21033;-60
2022/04/23 01:54:04;;;;;;;11.38;6.87;;;8.30;81.00;;;;;;1877139;76;21026;-60
2022/04/23 01:56:34;;;;;;;13.18;6.62;;;8.30;81.00;;;;;;1881772;75;21124;-60
2022/04/23 01:59:03;;;;;;;8.85;6.60;;;8.30;81.10;;;;;;1904945;75;21035;-60
2022/04/23 02:01:35;;;;;;;10.28;6.08;;;8.30;81.20;;;;;;1872061;75;21096;-60
2022/04/23 02:04:08;;;;;;;8.48;6.53;;;8.30;81.20;;;;;;1905006;75;21035;-60
2022/04/23 02:06:37;;;;;;;9.98;6.80;;;8.40;81.30;;;;;;1904918;75;21080;-60
2022/04/23 02:09:07;;;;;;;9.90;6.05;;;8.30;81.30;;;;;;1905013;74;21043;-60
2022/04/23 02:11:36;;;;;;;19.15;6.72;;;8.40;81.20;;;;;;1904944;75;21027;-60
2022/04/23 02:14:06;;;;;;;15.32;5.92;;;8.30;80.80;;;;;;1904911;75;21039;-60
2022/04/23 02:16:35;;;;;;;8.40;5.83;;;8.30;80.80;;;;;;1905032;75;21034;-60
2022/04/23 02:19:05;;;;;;;10.63;5.85;;;8.20;81.10;;;;;;1905026;74;21047;-61
2022/04/23 02:21:34;;;;;;;11.38;6.45;;;8.20;81.20;;;;;;1905004;75;21031;-60
2022/04/23 02:24:04;;;;;;;11.12;6.33;;;8.20;81.30;;;;;;1905028;74;21031;-60
2022/04/23 02:26:33;;;;;;;54.25;9.63;;;8.20;81.40;;;;;;1904998;75;21104;-60
2022/04/23 02:29:02;;;;;;;10.40;6.50;;;8.20;81.40;;;;;;1904901;75;21093;-60
2022/04/23 02:31:32;;;;;;;11.43;5.58;;;8.20;81.40;;;;;;1904876;75;21098;-60
2022/04/23 02:34:01;;;;;;;11.25;6.42;;;8.20;81.40;;;;;;1904931;75;21101;-60
2022/04/23 02:36:30;;;;;;;11.08;6.53;;;8.20;81.60;;;;;;1904944;75;21112;-60
2022/04/23 02:39:01;;;;;;;13.72;7.12;;;8.20;82.00;;;;;;1904867;75;21031;-60
2022/04/23 02:41:30;;;;;;;12.98;7.33;;;8.20;81.40;;;;;;1905039;75;21540;-60
2022/04/23 02:43:59;;;;;;;17.25;7.47;;;8.20;81.10;;;;;;1904999;75;21085;-60
2022/04/23 02:46:28;;;;;;;22.13;7.15;;;8.20;80.80;;;;;;1904839;75;21096;-60
2022/04/23 02:48:59;;;;;;;12.60;7.47;;;8.20;80.80;;;;;;1904978;75;21473;-60
2022/04/23 02:51:28;;;;;;;15.45;7.90;;;8.10;80.80;;;;;;1904873;75;21034;-60
2022/04/23 02:53:57;;;;;;;15.30;6.67;;;8.10;80.70;;;;;;1905012;75;21038;-60
2022/04/23 02:56:28;;;;;;;18.75;6.62;;;8.10;80.80;;;;;;1905117;75;21050;-60
2022/04/23 02:58:58;;;;;;;21.77;8.15;;;8.10;81.20;;;;;;1880043;75;21062;-60
2022/04/23 03:01:29;;;;;;;11.53;6.37;;;8.10;81.10;;;;;;1877153;76;21100;-60
2022/04/23 03:03:59;;;;;;;14.73;7.00;;;8.10;80.90;;;;;;1877080;76;21480;-60
2022/04/23 03:06:30;;;;;;;19.23;7.40;;;8.10;81.10;;;;;;1877158;76;21095;-60
2022/04/23 03:09:04;;;;;;;21.70;7.00;;;8.10;81.40;;;;;;1877192;76;21030;-60
2022/04/23 03:11:31;;;;;;;14.10;7.15;;;8.10;81.10;;;;;;1876439;76;21487;-60
2022/04/23 03:14:00;;;;;;;12.43;7.62;;;8.20;80.90;;;;;;1877120;76;21029;-60
2022/04/23 03:16:29;;;;;;;17.00;7.70;;;8.20;80.90;;;;;;1877092;76;21017;-60
2022/04/23 03:18:59;;;;;;;17.98;7.85;;;8.20;80.80;;;;;;1877162;76;21026;-60
2022/04/23 03:21:28;;;;;;;17.82;7.65;;;8.30;80.50;;;;;;1877052;76;21002;-60
2022/04/23 03:23:57;;;;;;;14.90;6.70;;;8.20;80.30;;;;;;1877193;76;21033;-60
2022/04/23 03:26:26;;;;;;;9.93;7.10;;;8.10;80.40;;;;;;1877005;76;21018;-60
2022/04/23 03:28:56;;;;;;;11.80;6.97;;;8.10;80.60;;;;;;1877098;76;21130;-60
2022/04/23 03:31:26;;;;;;;24.70;8.18;;;8.10;80.90;;;;;;1877163;76;21026;-60
2022/04/23 03:33:55;;;;;;;15.58;8.03;;;8.10;81.00;;;;;;1877217;76;21037;-60
2022/04/23 03:36:24;;;;;;;26.48;6.97;;;8.20;81.00;;;;;;1877071;76;20998;-60
2022/04/23 03:38:54;;;;;;;17.73;7.12;;;8.20;81.00;;;;;;1877151;76;21087;-60
2022/04/23 03:41:23;;;;;;;15.83;6.60;;;8.20;80.60;;;;;;1877172;76;21151;-60
2022/04/23 03:43:53;;;;;;;12.63;5.85;;;8.10;80.40;;;;;;1877197;76;21097;-60
2022/04/23 03:46:22;;;;;;;19.05;6.47;;;8.10;80.60;;;;;;1877153;75;21033;-60
2022/04/23 03:48:51;;;;;;;9.78;6.62;;;8.10;80.90;;;;;;1877163;76;21066;-60
2022/04/23 03:51:20;;;;;;;9.35;6.65;;;8.10;80.90;;;;;;1877185;76;21037;-60
2022/04/23 03:53:49;;;;;;;12.55;6.95;;;8.20;81.30;;;;;;1877156;76;21034;-60
2022/04/23 03:56:19;;;;;;;11.95;6.70;;;8.20;80.90;;;;;;1877165;76;21107;-60
2022/04/23 03:58:49;;;;;;;10.58;6.72;;;8.30;80.90;;;;;;1893611;74;21062;-60
2022/04/23 04:01:19;;;;;;;10.18;6.72;;;8.40;80.80;;;;;;1904935;75;21112;-60
2022/04/23 04:03:48;;;;;;;15.50;7.80;;;8.50;80.70;;;;;;1905015;75;21093;-60
2022/04/23 04:06:17;;;;;;;9.85;6.87;;;8.60;80.70;;;;;;1904854;75;21046;-60
2022/04/23 04:08:50;;;;;;;14.43;7.03;;;8.70;80.70;;;;;;1904973;75;21027;-60
2022/04/23 04:11:18;;;;;;;13.75;7.00;;;8.90;80.60;;;;;;1904993;75;21092;-60
2022/04/23 04:13:48;;;;;;;12.55;7.35;;;9.00;80.50;;;;;;1904995;74;21055;-60
2022/04/23 04:16:18;;;;;;;14.80;7.15;;;9.20;80.40;;;;;;1904956;74;21030;-60
2022/04/23 04:18:48;;;;;;;12.75;8.08;;;9.30;80.00;;;;;;1904919;75;21077;-60
2022/04/23 04:21:19;;;;;;;40.48;9.45;;;9.40;79.90;;;;;;1905027;75;21092;-60
2022/04/23 04:23:48;;;;;;;18.85;8.15;;;9.50;79.60;;;;;;1905123;75;21051;-60
2022/04/23 04:26:17;;;;;;;21.23;8.20;;;9.50;79.50;;;;;;1904994;75;21108;-60
2022/04/23 04:28:47;;;;;;;13.70;7.37;;;9.60;79.40;;;;;;1905073;75;21105;-60
2022/04/23 04:34:04;;;;;;;12.85;7.85;;;9.90;79.40;;;;;;1905098;75;21129;-60
2022/04/23 04:36:34;;;;;;;14.63;8.58;;;10.00;79.10;;;;;;1904954;74;21139;-60
2022/04/23 04:39:03;;;;;;;16.50;10.15;;;10.00;78.90;;;;;;1904972;75;21120;-60
2022/04/23 04:41:33;;;;;;;15.50;9.13;;;10.10;79.10;;;;;;1904920;75;21006;-62
2022/04/23 04:44:02;;;;;;;15.40;9.48;;;10.10;78.90;;;;;;1904953;75;21031;-60
2022/04/23 04:46:35;;;;;;;12.05;9.05;;;10.10;78.80;;;;;;1905116;75;21059;-60
2022/04/23 04:49:05;;;;;;;13.00;9.15;;;10.20;79.10;;;;;;1904961;75;21035;-60
2022/04/23 04:51:37;;;;;;;16.85;9.68;;;10.30;79.00;;;;;;1905034;74;21015;-60
2022/04/23 04:54:07;;;;;;;15.85;9.80;;;10.40;78.60;;;;;;1905027;75;21477;-60
2022/04/23 04:56:36;;;;;;;11.75;9.18;;;10.50;78.30;;;;;;1904899;74;21038;-61
2022/04/23 04:59:05;;;;;;;16.27;10.32;;;10.50;78.40;;;;;;1904896;75;21070;-61
2022/04/23 05:01:35;;;;;;;30.57;10.58;;;10.50;78.30;;;;;;1904887;75;21550;-61
2022/04/23 05:04:04;;;;;;;20.48;9.85;;;10.60;78.50;;;;;;1904894;75;21038;-61
2022/04/23 05:06:34;;;;;;;20.37;10.35;;;10.70;78.40;;;;;;1904884;75;21140;-61
2022/04/23 05:09:03;;;;;;;14.47;9.68;;;10.80;78.20;;;;;;1905024;75;21141;-61
2022/04/23 05:11:32;;;;;;;13.78;8.73;;;10.90;78.00;;;;;;1904990;75;21007;-61
2022/04/23 05:14:02;;;;;;;14.95;9.70;;;10.90;77.30;;;;;;1904876;75;21096;-61
2022/04/23 05:16:31;;;;;;;12.50;8.90;;;10.90;77.30;;;;;;1904863;75;21051;-61
2022/04/23 05:19:00;;;;;;;14.40;9.45;;;10.90;77.30;;;;;;1904867;75;21046;-61
2022/04/23 05:21:30;;;;;;;15.80;9.43;;;11.00;77.40;;;;;;1904771;74;21047;-61
2022/04/23 05:23:59;;;;;;;17.85;9.58;;;10.90;77.30;;;;;;1904928;75;21026;-61
2022/04/23 05:26:28;;;;;;;15.20;10.00;;;10.90;77.40;;;;;;1904870;75;21148;-61
2022/04/23 05:28:58;;;;;;;15.45;9.40;;;11.00;77.70;;;;;;1905029;75;21418;-61
2022/04/23 05:31:27;;;;;;;33.05;19.90;;;11.00;77.60;;;;;;1904890;75;21091;-61
2022/04/23 05:33:56;;;;;;;23.73;9.70;;;11.10;77.40;;;;;;1904954;75;21105;-61
2022/04/23 05:36:26;;;;;;;21.37;13.65;;;11.20;77.20;;;;;;1904896;74;21034;-61
2022/04/23 05:38:55;;;;;;;13.08;9.98;;;11.20;77.30;;;;;;1904930;75;21455;-61
2022/04/23 05:41:25;;;;;;;16.02;8.65;;;11.20;77.40;;;;;;1904896;74;21006;-61
2022/04/23 05:43:54;;;;;;;15.08;9.03;;;11.30;77.30;;;;;;1904986;75;21081;-61
2022/04/23 05:46:24;;;;;;;14.65;8.45;;;11.40;77.40;;;;;;1904877;75;21086;-61
2022/04/23 05:48:53;;;;;;;13.75;8.95;;;11.40;77.20;;;;;;1904991;75;21022;-61
2022/04/23 05:51:23;;;;;;;12.63;9.63;;;11.50;77.10;;;;;;1905023;75;21062;-61
2022/04/23 05:53:53;;;;;;;15.83;9.13;;;11.50;77.20;;;;;;1904878;75;21100;-61
2022/04/23 05:56:22;;;;;;;17.23;10.45;;;11.50;77.20;;;;;;1905037;75;21038;-61
2022/04/23 05:58:51;;;;;;;15.40;9.55;;;11.60;77.10;;;;;;1904740;75;21136;-61
2022/04/23 06:01:21;;;;;;;23.70;8.80;;;11.70;77.10;;;;;;1904994;75;21054;-61
2022/04/23 06:03:50;;;;;;;12.37;8.63;;;11.70;77.00;;;;;;1904863;75;21030;-61
2022/04/23 06:06:20;;;;;;;14.53;9.33;;;11.70;77.00;;;;;;1904848;75;21003;-61
2022/04/23 06:08:49;;;;;;;18.62;10.40;;;11.80;77.10;;;;;;1904846;75;21093;-61
2022/04/23 06:11:19;;;;;;;24.50;12.07;;;11.80;77.10;;;;;;1904940;75;21630;-61
2022/04/23 06:13:48;;;;;;;15.65;10.82;;;11.90;77.10;;;;;;1904888;74;21030;-61
2022/04/23 06:16:17;;;;;;;12.30;9.43;;;11.90;76.80;;;;;;1904858;75;21034;-61
2022/04/23 06:18:46;;;;;;;15.75;10.15;;;12.00;76.80;;;;;;1904840;75;21088;-61
2022/04/23 06:21:16;;;;;;;20.15;9.93;;;12.10;76.80;;;;;;1904958;75;21105;-61
2022/04/23 06:23:46;;;;;;;16.87;10.10;;;12.10;76.40;;;;;;1904800;75;21108;-60
2022/04/23 06:26:15;;;;;;;14.20;10.68;;;12.10;76.50;;;;;;1904940;75;21030;-61
2022/04/23 06:28:44;;;;;;;14.40;10.28;;;12.20;76.60;;;;;;1904937;74;21582;-60
2022/04/23 06:31:14;;;;;;;13.58;10.00;;;12.20;76.60;;;;;;1904858;74;21023;-60
2022/04/23 06:33:43;;;;;;;12.25;9.53;;;12.30;76.30;;;;;;1904889;75;21034;-61
2022/04/23 06:36:13;;;;;;;14.50;9.58;;;12.30;75.90;;;;;;1904802;75;21007;-60
2022/04/23 06:38:42;;;;;;;13.05;10.13;;;12.30;76.10;;;;;;1904931;74;21117;-61
2022/04/23 06:41:12;;;;;;;12.55;10.10;;;12.30;76.10;;;;;;1904936;75;21006;-61
2022/04/23 06:43:41;;;;;;;16.25;10.58;;;12.40;76.40;;;;;;1904927;75;21026;-61
2022/04/23 06:46:10;;;;;;;14.63;10.03;;;12.40;76.30;;;;;;1905049;75;21340;-61
2022/04/23 06:48:40;;;;;;;15.00;10.50;;;12.40;76.40;;;;;;1905027;75;21100;-60
2022/04/23 06:51:09;;;;;;;11.20;8.18;;;12.50;76.60;;;;;;1904933;75;21125;-61
2022/04/23 06:53:39;;;;;;;14.18;8.88;;;12.60;76.70;;;;;;1905058;75;21027;-61
2022/04/23 06:56:08;;;;;;;11.90;9.48;;;12.70;76.60;;;;;;1904945;75;21558;-60
2022/04/23 06:58:38;;;;;;;9.68;7.20;;;12.90;77.00;;;;;;1904949;75;21058;-61
2022/04/23 07:01:07;;;;;;;9.90;7.12;;;13.00;76.10;;;;;;1882634;75;21053;-60
2022/04/23 07:03:37;;;;;;;9.18;6.62;;;13.10;75.80;;;;;;1876920;76;21010;-60
2022/04/23 07:06:06;;;;;;;8.23;7.22;;;13.20;75.30;;;;;;1876946;76;21053;-60
2022/04/23 07:08:36;;;;;;;8.33;7.30;;;13.30;75.10;;;;;;1876881;75;21108;-60
2022/04/23 07:11:05;;;;;;;9.75;6.62;;;13.40;74.90;;;;;;1876903;76;21125;-60
2022/04/23 07:13:35;;;;;;;8.30;6.30;;;13.50;74.40;;;;;;1876904;75;21076;-60
2022/04/23 07:16:05;;;;;;;9.15;6.37;;;13.70;74.10;;;;;;1876984;76;21085;-60
2022/04/23 07:18:35;;;;;;;9.05;6.33;;;13.80;74.00;;;;;;1876992;76;21029;-60
2022/04/23 07:21:04;;;;;;;10.15;6.30;;;13.90;73.50;;;;;;1877018;76;21030;-60
2022/04/23 07:26:22;;;;;;;6.78;5.35;;;14.10;72.30;;;;;;1876866;76;21041;-61
2022/04/23 07:28:52;;;;;;;8.98;5.05;;;14.30;71.20;;;;;;1876880;76;21115;-60
2022/04/23 07:31:21;;;;;;;6.25;5.28;;;14.40;70.30;;;;;;1876991;76;21030;-60
2022/04/23 07:39:25;;;;;;;4.42;4.03;;;14.70;69.20;;;;;;1876938;76;21081;-60
2022/04/23 07:41:54;;;;;;;4.42;3.55;;;14.80;68.60;;;;;;1877165;76;21037;-60
2022/04/23 07:44:24;;;;;;;5.30;4.47;;;14.90;66.90;;;;;;1877155;76;21095;-60
2022/04/23 07:46:53;;;;;;;5.55;4.22;;;15.00;67.40;;;;;;1877213;76;21025;-60
2022/04/23 07:49:23;;;;;;;4.80;3.90;;;15.00;67.70;;;;;;1877135;76;21029;-60
2022/04/23 07:51:52;;;;;;;7.70;5.15;;;15.10;66.50;;;;;;1877142;76;21025;-60
2022/04/23 07:54:22;;;;;;;7.10;4.22;;;15.20;65.60;;;;;;1877354;76;21097;-60
2022/04/23 07:56:52;;;;;;;5.67;4.15;;;15.20;65.50;;;;;;1876999;76;21018;-60
2022/04/23 07:59:22;;;;;;;5.58;4.15;;;15.20;65.80;;;;;;1877147;76;21045;-60
2022/04/23 08:01:51;;;;;;;6.45;3.85;;;15.30;66.00;;;;;;1877164;76;21120;-60
2022/04/23 08:04:20;;;;;;;5.62;5.05;;;15.40;65.60;;;;;;1877146;76;21029;-60
2022/04/23 08:06:50;;;;;;;6.55;3.98;;;15.50;65.30;;;;;;1877057;76;21073;-60
2022/04/23 08:09:19;;;;;;;11.48;3.70;;;15.50;65.60;;;;;;1877012;76;21042;-60
2022/04/23 08:11:48;;;;;;;6.17;4.60;;;15.70;65.00;;;;;;1877142;76;21029;-60
2022/04/23 08:14:18;;;;;;;5.90;3.90;;;15.70;64.00;;;;;;1877232;76;20998;-60
2022/04/23 08:16:49;;;;;;;38.55;7.37;;;15.70;63.60;;;;;;1876949;76;21092;-60
2022/04/23 08:19:18;;;;;;;8.25;4.08;;;15.80;63.40;;;;;;1877163;76;21530;-60
2022/04/23 08:21:47;;;;;;;5.97;4.03;;;15.80;63.80;;;;;;1877134;75;21017;-60
2022/04/23 08:24:16;;;;;;;5.90;4.12;;;15.80;63.80;;;;;;1877057;76;21006;-60
2022/04/23 08:26:46;;;;;;;6.58;3.72;;;15.80;64.00;;;;;;1876969;76;21049;-60
2022/04/23 08:32:03;;;;;;;5.00;3.80;;;15.80;61.80;;;;;;1877102;76;21053;-60
2022/04/23 08:34:33;;;;;;;5.20;4.05;;;15.80;62.70;;;;;;1877114;76;21099;-60
2022/04/23 08:37:03;;;;;;;5.67;4.17;;;15.70;63.40;;;;;;1877093;76;21120;-60
2022/04/23 08:39:32;;;;;;;7.42;3.92;;;15.80;63.50;;;;;;1877028;76;21030;-59
2022/04/23 08:42:02;;;;;;;17.45;4.62;;;15.80;63.40;;;;;;1877076;76;21420;-60
2022/04/23 08:44:31;;;;;;;9.98;5.90;;;15.80;64.10;;;;;;1877048;76;21006;-60
2022/04/23 08:47:01;;;;;;;4.22;3.62;;;15.90;64.00;;;;;;1877078;76;21184;-60
2022/04/23 08:49:38;;;;;;;5.92;3.17;;;15.90;63.70;;;;;;1877020;76;21167;-60
2022/04/23 08:52:06;;;;;;;;;;;16.00;63.00;;;;;;1879634;75;21100;-60
2022/04/23 08:54:36;;;;;;;4.37;3.12;;;16.10;63.30;;;;;;1875857;75;20138;-60
2022/04/23 08:57:06;;;;;;;4.60;3.00;;;16.10;63.10;;;;;;1877088;76;21069;-60
2022/04/23 08:59:36;;;;;;;3.87;3.47;;;16.10;63.60;;;;;;1877116;76;21091;-59
2022/04/23 09:02:10;;;;;;;3.40;3.05;;;16.20;63.00;;;;;;1877109;75;21374;-59
2022/04/23 09:04:44;;;;;;;3.30;3.00;;;16.20;62.70;;;;;;1877104;76;21499;-59
2022/04/23 09:07:25;;;;;;;3.55;3.02;;;16.20;61.90;;;;;;1876453;76;21045;-59
2022/04/23 09:09:56;;;;;;;3.55;3.00;;;16.20;61.90;;;;;;1876964;76;21111;-59
2022/04/23 09:12:26;;;;;;;5.47;3.58;;;16.20;62.50;;;;;;1876981;76;21100;-60
2022/04/23 09:23:39;;;;;;;3.65;3.00;;;16.20;62.60;;;;;;1877137;76;21166;-59
2022/04/23 09:26:05;;;;;;;4.37;3.58;;;16.50;61.80;;;;;;1877028;76;21042;-60
2022/04/23 09:28:35;;;;;;;3.87;3.47;;;16.60;61.80;;;;;;1875987;76;21050;-60
2022/04/23 09:31:07;;;;;;;4.75;3.00;;;16.70;61.10;;;;;;1877147;76;21042;-60
2022/04/23 09:33:54;;;;;;;5.42;3.22;;;16.80;61.80;;;;;;1876605;75;21567;-59
2022/04/23 09:36:18;;;;;;;18.02;4.25;;;16.90;61.30;;;;;;1875734;75;21099;-59
2022/04/23 09:39:02;;;;;;;5.28;3.22;;;17.00;61.70;;;;;;1876964;76;21006;-59
2022/04/23 09:41:36;;;;;;;4.00;3.17;;;17.00;61.20;;;;;;1877636;75;21428;-59
2022/04/23 09:44:10;;;;;;;3.45;3.15;;;17.10;61.40;;;;;;1876904;76;20998;-59
2022/04/23 09:46:47;;;;;;;5.15;3.47;;;17.20;60.80;;;;;;1877090;76;20994;-59
2022/04/23 09:49:21;;;;;;;4.17;3.02;;;17.30;60.50;;;;;;1876915;76;21081;-60
2022/04/23 09:52:08;;;;;;;3.97;3.47;;;17.30;60.30;;;;;;1877494;75;21096;-60
2022/04/23 09:54:39;;;;;;;5.00;3.77;;;17.40;60.00;;;;;;1877068;76;21103;-59
2022/04/23 09:57:08;;;;;;;3.65;3.20;;;17.50;60.80;;;;;;1877011;76;21042;-59
2022/04/23 09:59:38;;;;;;;4.17;2.83;;;17.60;60.10;;;;;;1877072;76;21050;-59
2022/04/23 10:02:10;;;;;;;3.40;3.10;;;17.60;60.30;;;;;;1876971;75;21107;-60
2022/04/23 10:04:40;;;;;;;4.45;3.20;;;17.70;59.60;;;;;;1876918;76;21030;-60
2022/04/23 10:07:10;;;;;;;5.22;3.72;;;17.80;59.30;;;;;;1877036;76;21560;-59
2022/04/23 10:09:45;;;;;;;6.53;3.40;;;17.80;59.40;;;;;;1877000;76;20998;-60
2022/04/23 10:12:15;;;;;;;;;;;17.80;59.50;;;;;;1879776;76;21479;-59
2022/04/23 10:14:53;;;;;;;6.00;3.30;;;17.90;58.90;;;;;;1877109;76;20095;-59
2022/04/23 10:17:23;;;;;;;5.17;3.50;;;17.90;59.50;;;;;;1871453;75;21025;-60
2022/04/23 10:19:53;;;;;;;5.80;4.17;;;17.90;59.20;;;;;;1877084;76;21163;-59
2022/04/23 10:22:37;;;;;;;4.80;3.50;;;17.90;59.50;;;;;;1877128;76;21025;-59
2022/04/23 10:25:46;;;;;;;4.15;3.67;;;17.90;59.50;;;;;;1876151;75;21046;-60
2022/04/23 10:28:18;;;;;;;7.35;5.22;;;17.90;59.50;;;;;;1877219;76;21085;-59
2022/04/23 10:30:48;;;;;;;13.68;4.62;;;18.00;59.70;;;;;;1877057;76;21081;-60
2022/04/23 10:33:30;;;;;;;11.15;6.30;;;18.00;59.30;;;;;;1877070;76;21088;-59
2022/04/23 10:36:10;;;;;;;10.05;5.25;;;18.10;58.70;;;;;;1877019;76;21080;-60
2022/04/23 10:38:51;;;;;;;5.35;4.28;;;18.20;59.10;;;;;;1876943;76;21557;-59
2022/04/23 10:41:15;;;;;;;4.20;3.52;;;18.20;59.30;;;;;;1876395;76;21111;-59
2022/04/23 10:43:49;;;;;;;4.37;3.40;;;18.30;59.10;;;;;;1876930;75;21025;-60
2022/04/23 10:46:40;;;;;;;4.12;3.72;;;18.30;59.10;;;;;;1877094;76;21105;-60
2022/04/23 10:49:14;;;;;;;3.62;3.33;;;18.40;59.00;;;;;;1876912;76;21166;-60
2022/04/23 10:51:53;;;;;;;4.00;2.85;;;18.40;58.30;;;;;;1877087;76;21095;-60
2022/04/23 10:54:40;;;;;;;5.40;3.75;;;18.50;57.90;;;;;;1876933;76;21021;-60
2022/04/23 10:57:14;;;;;;;4.97;3.62;;;18.50;57.70;;;;;;1876917;76;20994;-60
2022/04/23 10:59:48;;;;;;;5.17;4.62;;;18.50;57.60;;;;;;1877005;76;21472;-60
2022/04/23 11:02:26;;;;;;;6.50;3.87;;;18.60;58.10;;;;;;1879041;75;21104;-60
2022/04/23 11:13:34;;;;;;;7.40;4.00;;;18.50;58.50;;;;;;1883035;76;21030;-60
2022/04/23 11:16:11;;;;;;;6.25;4.80;;;18.60;58.80;;;;;;1882986;76;21026;-60
2022/04/23 11:18:41;;;;;;;4.75;3.83;;;18.60;59.20;;;;;;1882971;76;21042;-60
2022/04/23 11:21:28;;;;;;;4.87;4.10;;;18.70;58.80;;;;;;1883014;76;21025;-60
2022/04/23 11:23:58;;;;;;;4.03;3.40;;;18.70;59.00;;;;;;1882942;76;21069;-60
2022/04/23 11:26:45;;;;;;;4.83;3.77;;;18.80;58.40;;;;;;1883018;76;21033;-60
2022/04/23 11:29:15;;;;;;;4.58;3.87;;;18.80;57.80;;;;;;1882482;76;21491;-60
2022/04/23 11:31:56;;;;;;;4.70;3.55;;;18.80;58.00;;;;;;1882937;76;21025;-60
2022/04/23 11:34:30;;;;;;;4.20;3.52;;;18.80;57.90;;;;;;1882958;76;21050;-59
2022/04/23 11:36:56;;;;;;;5.15;3.60;;;18.80;58.10;;;;;;1882176;76;21567;-60
2022/04/23 11:39:30;;;;;;;4.95;4.20;;;18.90;58.10;;;;;;1882978;75;21066;-59
2022/04/23 11:42:00;;;;;;;32.17;6.85;;;18.80;58.10;;;;;;1882943;76;21053;-59
2022/04/23 11:44:50;;;;;;;6.00;3.98;;;18.90;58.00;;;;;;1882939;76;21042;-59
2022/04/23 11:47:23;;;;;;;8.48;4.33;;;18.90;58.00;;;;;;1882842;76;21103;-59
2022/04/23 11:49:52;;;;;;;5.30;4.60;;;18.90;57.80;;;;;;1882006;76;21111;-59
2022/04/23 11:52:25;;;;;;;5.08;4.05;;;18.90;57.80;;;;;;1882976;76;21033;-59
2022/04/23 11:54:54;;;;;;;9.58;4.12;;;18.90;57.40;;;;;;1882928;76;21107;-59
2022/04/23 11:57:24;;;;;;;6.35;4.47;;;18.90;57.50;;;;;;1882824;75;21087;-59
2022/04/23 11:59:55;;;;;;;4.45;4.05;;;18.90;57.40;;;;;;1882862;76;20997;-59
2022/04/23 12:02:28;;;;;;;20.82;4.95;;;19.00;57.70;;;;;;1882367;75;21634;-59
2022/04/23 12:05:00;;;;;;;6.97;3.60;;;19.10;57.80;;;;;;1882891;75;21577;-59
2022/04/23 12:07:31;;;;;;;2.65;2.40;;;19.10;57.70;;;;;;1882826;76;21092;-59
2022/04/23 12:10:06;;;;;;;3.70;3.17;;;19.10;57.20;;;;;;1882900;76;21025;-59
2022/04/23 12:12:33;;;;;;;4.87;3.87;;;19.00;57.20;;;;;;1882098;76;21107;-59
2022/04/23 12:15:08;;;;;;;5.75;3.87;;;19.00;57.60;;;;;;1882832;76;21073;-59
2022/04/23 12:17:54;;;;;;;4.87;3.62;;;18.90;57.70;;;;;;1882963;76;21179;-59
2022/04/23 12:20:26;;;;;;;4.28;3.80;;;18.90;58.00;;;;;;1882950;76;21115;-59
2022/04/23 12:23:00;;;;;;;7.62;4.80;;;18.80;57.90;;;;;;1882964;76;21083;-59
2022/04/23 12:25:31;;;;;;;8.48;4.30;;;18.80;58.20;;;;;;1882852;76;21001;-59
2022/04/23 12:42:14;;;;;;;5.40;4.00;;;19.00;58.30;;;;;;1883086;76;21013;-59
2022/04/23 12:44:46;;;;;;;4.33;3.70;;;19.10;58.00;;;;;;1882962;76;21037;-60
2022/04/23 12:47:17;;;;;;;5.30;4.08;;;19.10;57.80;;;;;;1882793;76;20998;-59
2022/04/23 12:49:48;;;;;;;7.35;3.52;;;19.10;57.70;;;;;;1882831;76;21033;-59
2022/04/23 12:52:21;;;;;;;5.05;4.20;;;19.10;57.40;;;;;;1882995;76;21170;-59
2022/04/23 12:55:21;;;;;;;7.47;4.55;;;19.00;57.40;;;;;;1883031;76;21009;-60
2022/04/23 12:58:05;;;;;;;3.95;3.47;;;19.00;57.30;;;;;;1881684;76;21096;-59
2022/04/23 13:00:40;;;;;;;9.13;4.50;;;19.00;57.40;;;;;;1882912;76;21099;-59
2022/04/23 13:05:52;;;;;;;4.67;3.75;;;18.90;56.80;;;;;;1877174;76;21049;-59
2022/04/23 13:11:31;;;;;;;4.10;3.58;;;18.90;57.50;;;;;;1877107;76;21100;-60
2022/04/23 13:13:59;;;;;;;6.40;4.20;;;19.00;57.30;;;;;;1876469;76;21088;-60
2022/04/23 13:16:30;;;;;;;4.25;3.85;;;19.00;57.50;;;;;;1877164;76;21022;-60
2022/04/23 13:19:00;;;;;;;5.08;3.72;;;19.10;57.30;;;;;;1877129;76;21100;-60
2022/04/23 13:21:32;;;;;;;5.15;4.35;;;19.00;57.00;;;;;;1877109;76;21128;-60
2022/04/23 13:24:01;;;;;;;11.28;4.33;;;19.00;57.00;;;;;;1877118;76;21002;-60
2022/04/23 13:26:31;;;;;;;9.60;6.72;;;19.00;57.40;;;;;;1877178;76;21030;-60
2022/04/23 13:29:00;;;;;;;26.57;5.92;;;19.00;57.70;;;;;;1877210;76;21086;-60
2022/04/23 13:31:30;;;;;;;5.50;4.00;;;19.00;57.50;;;;;;1877035;76;21002;-60
2022/04/23 13:33:59;;;;;;;4.33;3.90;;;19.00;57.20;;;;;;1877204;76;21096;-60
2022/04/23 13:36:28;;;;;;;5.47;3.95;;;18.90;57.60;;;;;;1877075;76;21014;-60
2022/04/23 13:38:58;;;;;;;5.10;3.83;;;18.90;57.80;;;;;;1877078;76;21131;-60
2022/04/23 13:41:27;;;;;;;4.67;4.08;;;19.00;57.50;;;;;;1877013;76;21131;-60
2022/04/23 13:43:56;;;;;;;7.30;4.42;;;19.00;57.30;;;;;;1877018;76;21029;-60
2022/04/23 13:46:25;;;;;;;5.78;4.55;;;19.00;57.50;;;;;;1877065;76;21025;-60
2022/04/23 13:48:56;;;;;;;4.97;4.30;;;19.00;57.70;;;;;;1877052;76;21437;-60
2022/04/23 13:51:26;;;;;;;5.05;4.22;;;19.00;57.60;;;;;;1876973;76;21030;-60
2022/04/23 13:53:55;;;;;;;4.22;3.83;;;19.00;57.60;;;;;;1876988;75;21005;-60
2022/04/23 13:56:24;;;;;;;4.95;3.62;;;18.90;57.50;;;;;;1877150;76;21006;-60